Live Your Life

Объявление

Информация о пользователе

Привет, Гость! Войдите или зарегистрируйтесь.


Вы здесь » Live Your Life » Неформат


Неформат

Тем 1 страница 30 из 40

Тема Ответов Просмотров Последнее сообщение
36 1068 Вчера 12:19:50  до_одури
2 Fire and blood  северные огни
2 144 10-12-2018 16:38:37  северные огни
204 12050 10-12-2018 10:59:33  LRS
4 Grammaire  Grammaire
4 172 09-12-2018 23:53:11  Grammaire
5 Атлантида  Kiros56488123
18 610 09-12-2018 20:29:05  Kiros56488123
23 660 09-12-2018 12:50:25  Heath
7 Tempus Futurum  Jonah
15 560 09-12-2018 12:26:43  Jonah
180 5492 07-12-2018 16:50:00  Vitaminka
0 27 07-12-2018 09:21:48  Гиза
23 1648 05-12-2018 19:25:08  Флинт
19 432 04-12-2018 02:02:19  Pa-ku
9 1230 03-12-2018 22:19:30  Генеральный секретарь
89 3705 02-12-2018 19:44:22  DeWitt
12 441 01-12-2018 17:16:55  Margarit Crowx
115 4899 30-11-2018 01:43:22  Automation baby
11 407 27-11-2018 01:55:08  Hurley
17 Космический ветер  Кот капитана Флинта  [ Тема 17 Page 1 Тема 17 Page 2 ]
31 1481 26-11-2018 12:08:13  Кот капитана Флинта
18 Великий век  Филипп Орлеанский
5 257 24-11-2018 23:58:00  Филипп Орлеанский
19 The Mist  Mao
12 1127 23-11-2018 00:31:19  Mao
20 Nex|t|us  Melinda
15 1255 19-11-2018 07:56:44  Melinda
21 Ever after  Вьюга
2 254 17-11-2018 22:17:59  Вьюга
22 В шаге от трона  Королевство Камбрия
9 254 15-11-2018 11:00:25  Королевство Камбрия
6 439 11-11-2018 18:55:21  Fro
24 Нассау  Летучий Голландец  [ Тема 24 Page 1 Тема 24 Page 2 Тема 24 Page 3 ]
44 2386 09-11-2018 19:24:34  Флинт
25 Malleus_Malefikarum  Инквизитор
2 208 09-11-2018 13:29:28  Инквизитор
45 4668 09-11-2018 01:11:28  Prologue
33 1699 07-11-2018 19:33:05  Дэк
27 1159 07-11-2018 14:31:25  Огнеязыцый
1 60 07-11-2018 06:42:03  Hurley
10 867 03-11-2018 02:01:04  Oxymoron

Вы здесь » Live Your Life » Неформат


Рейтинг форумов | Создать форум бесплатно © 2007–2017 «QuadroSystems» LLC